sensor_id;sensor_type;location;lat;lon;timestamp;P1;durP1;ratioP1;P2;durP2;ratioP2
65373;SDS011;52070;53.760;9.678;2023-04-03T00:02:01;4.22;;;1.52;;
65373;SDS011;52070;53.760;9.678;2023-04-03T00:04:28;7.80;;;1.60;;
65373;SDS011;52070;53.760;9.678;2023-04-03T00:06:57;10.40;;;2.10;;
65373;SDS011;52070;53.760;9.678;2023-04-03T00:09:24;7.38;;;1.95;;
65373;SDS011;52070;53.760;9.678;2023-04-03T00:11:51;8.52;;;1.70;;
65373;SDS011;52070;53.760;9.678;2023-04-03T00:14:18;9.70;;;1.98;;
65373;SDS011;52070;53.760;9.678;2023-04-03T00:16:45;7.47;;;2.05;;
65373;SDS011;52070;53.760;9.678;2023-04-03T00:19:12;5.65;;;1.90;;
65373;SDS011;52070;53.760;9.678;2023-04-03T00:21:39;6.50;;;1.95;;
65373;SDS011;52070;53.760;9.678;2023-04-03T00:24:08;7.18;;;1.98;;
65373;SDS011;52070;53.760;9.678;2023-04-03T00:26:35;4.85;;;2.10;;
65373;SDS011;52070;53.760;9.678;2023-04-03T00:29:01;6.00;;;2.00;;
65373;SDS011;52070;53.760;9.678;2023-04-03T00:31:28;6.90;;;2.08;;
65373;SDS011;52070;53.760;9.678;2023-04-03T00:33:56;5.95;;;1.98;;
65373;SDS011;52070;53.760;9.678;2023-04-03T00:36:22;8.20;;;1.63;;
65373;SDS011;52070;53.760;9.678;2023-04-03T00:38:50;7.35;;;1.90;;
65373;SDS011;52070;53.760;9.678;2023-04-03T00:41:18;5.13;;;1.63;;
65373;SDS011;52070;53.760;9.678;2023-04-03T00:43:45;5.97;;;1.67;;
65373;SDS011;52070;53.760;9.678;2023-04-03T00:46:12;4.82;;;1.45;;
65373;SDS011;52070;53.760;9.678;2023-04-03T00:48:40;3.60;;;1.60;;
65373;SDS011;52070;53.760;9.678;2023-04-03T00:51:09;7.60;;;1.95;;
65373;SDS011;52070;53.760;9.678;2023-04-03T00:53:41;7.85;;;1.60;;
65373;SDS011;52070;53.760;9.678;2023-04-03T00:56:12;4.40;;;1.77;;
65373;SDS011;52070;53.760;9.678;2023-04-03T00:58:44;8.20;;;1.60;;
65373;SDS011;52070;53.760;9.678;2023-04-03T01:01:15;3.83;;;1.70;;
65373;SDS011;52070;53.760;9.678;2023-04-03T01:03:47;6.63;;;1.83;;
65373;SDS011;52070;53.760;9.678;2023-04-03T01:06:14;6.93;;;1.50;;
65373;SDS011;52070;53.760;9.678;2023-04-03T01:08:43;6.13;;;1.73;;
65373;SDS011;52070;53.760;9.678;2023-04-03T01:11:12;5.70;;;1.55;;
65373;SDS011;52070;53.760;9.678;2023-04-03T01:13:39;5.47;;;1.52;;
65373;SDS011;52070;53.760;9.678;2023-04-03T01:16:08;5.68;;;1.35;;
65373;SDS011;52070;53.760;9.678;2023-04-03T01:18:36;4.80;;;1.52;;
65373;SDS011;52070;53.760;9.678;2023-04-03T01:21:16;8.07;;;1.70;;
65373;SDS011;52070;53.760;9.678;2023-04-03T01:24:06;3.63;;;1.20;;
65373;SDS011;52070;53.760;9.678;2023-04-03T01:26:39;5.38;;;1.15;;
65373;SDS011;52070;53.760;9.678;2023-04-03T01:29:07;6.95;;;1.60;;
65373;SDS011;52070;53.760;9.678;2023-04-03T01:31:45;8.30;;;1.23;;
65373;SDS011;52070;53.760;9.678;2023-04-03T01:34:13;1.80;;;1.27;;
65373;SDS011;52070;53.760;9.678;2023-04-03T01:36:40;6.68;;;1.50;;
65373;SDS011;52070;53.760;9.678;2023-04-03T01:39:08;19.05;;;2.03;;
65373;SDS011;52070;53.760;9.678;2023-04-03T01:41:35;4.57;;;1.48;;
65373;SDS011;52070;53.760;9.678;2023-04-03T01:44:02;4.00;;;1.30;;
65373;SDS011;52070;53.760;9.678;2023-04-03T01:46:30;7.30;;;1.70;;
65373;SDS011;52070;53.760;9.678;2023-04-03T01:48:58;2.00;;;1.10;;
65373;SDS011;52070;53.760;9.678;2023-04-03T01:51:25;2.25;;;1.23;;
65373;SDS011;52070;53.760;9.678;2023-04-03T01:53:52;4.03;;;1.50;;
65373;SDS011;52070;53.760;9.678;2023-04-03T01:56:19;9.27;;;1.38;;
65373;SDS011;52070;53.760;9.678;2023-04-03T01:58:46;5.65;;;1.40;;
65373;SDS011;52070;53.760;9.678;2023-04-03T02:01:13;4.63;;;1.42;;
65373;SDS011;52070;53.760;9.678;2023-04-03T02:03:40;3.40;;;1.75;;
65373;SDS011;52070;53.760;9.678;2023-04-03T02:06:08;9.73;;;1.65;;
65373;SDS011;52070;53.760;9.678;2023-04-03T02:08:35;11.73;;;1.95;;
65373;SDS011;52070;53.760;9.678;2023-04-03T02:11:02;5.70;;;1.55;;
65373;SDS011;52070;53.760;9.678;2023-04-03T02:13:29;5.47;;;1.70;;
65373;SDS011;52070;53.760;9.678;2023-04-03T02:15:56;3.05;;;1.33;;
65373;SDS011;52070;53.760;9.678;2023-04-03T02:18:24;7.88;;;1.70;;
65373;SDS011;52070;53.760;9.678;2023-04-03T02:20:51;4.30;;;1.05;;
65373;SDS011;52070;53.760;9.678;2023-04-03T02:23:19;7.07;;;1.60;;
65373;SDS011;52070;53.760;9.678;2023-04-03T02:25:46;4.30;;;1.45;;
65373;SDS011;52070;53.760;9.678;2023-04-03T02:28:14;4.30;;;1.17;;
65373;SDS011;52070;53.760;9.678;2023-04-03T02:30:41;4.03;;;1.73;;
65373;SDS011;52070;53.760;9.678;2023-04-03T02:33:08;4.43;;;1.58;;
65373;SDS011;52070;53.760;9.678;2023-04-03T02:35:35;5.93;;;1.50;;
65373;SDS011;52070;53.760;9.678;2023-04-03T02:38:02;3.40;;;1.65;;
65373;SDS011;52070;53.760;9.678;2023-04-03T02:40:30;6.00;;;1.70;;
65373;SDS011;52070;53.760;9.678;2023-04-03T02:42:57;3.30;;;1.42;;
65373;SDS011;52070;53.760;9.678;2023-04-03T02:45:24;6.32;;;1.42;;
65373;SDS011;52070;53.760;9.678;2023-04-03T02:47:51;7.38;;;1.67;;
65373;SDS011;52070;53.760;9.678;2023-04-03T02:50:18;6.70;;;1.40;;
65373;SDS011;52070;53.760;9.678;2023-04-03T02:52:45;4.78;;;1.35;;
65373;SDS011;52070;53.760;9.678;2023-04-03T02:55:13;5.45;;;1.83;;
65373;SDS011;52070;53.760;9.678;2023-04-03T02:57:42;2.40;;;1.15;;
65373;SDS011;52070;53.760;9.678;2023-04-03T03:00:10;5.90;;;1.70;;
65373;SDS011;52070;53.760;9.678;2023-04-03T03:02:37;8.48;;;1.83;;
65373;SDS011;52070;53.760;9.678;2023-04-03T03:05:04;5.90;;;1.67;;
65373;SDS011;52070;53.760;9.678;2023-04-03T03:07:31;8.55;;;1.60;;
65373;SDS011;52070;53.760;9.678;2023-04-03T03:09:58;5.82;;;1.42;;
65373;SDS011;52070;53.760;9.678;2023-04-03T03:12:25;6.70;;;1.70;;
65373;SDS011;52070;53.760;9.678;2023-04-03T03:14:53;5.30;;;1.67;;
65373;SDS011;52070;53.760;9.678;2023-04-03T03:17:20;7.30;;;2.00;;
65373;SDS011;52070;53.760;9.678;2023-04-03T03:19:47;5.65;;;1.48;;
65373;SDS011;52070;53.760;9.678;2023-04-03T03:22:15;7.55;;;1.80;;
65373;SDS011;52070;53.760;9.678;2023-04-03T03:24:42;6.43;;;1.65;;
65373;SDS011;52070;53.760;9.678;2023-04-03T03:27:09;6.78;;;1.65;;
65373;SDS011;52070;53.760;9.678;2023-04-03T03:29:37;4.25;;;1.77;;
65373;SDS011;52070;53.760;9.678;2023-04-03T03:32:05;4.75;;;1.70;;
65373;SDS011;52070;53.760;9.678;2023-04-03T03:34:32;11.15;;;1.73;;
65373;SDS011;52070;53.760;9.678;2023-04-03T03:36:59;2.85;;;1.40;;
65373;SDS011;52070;53.760;9.678;2023-04-03T03:39:26;5.85;;;1.80;;
65373;SDS011;52070;53.760;9.678;2023-04-03T03:41:53;4.80;;;1.50;;
65373;SDS011;52070;53.760;9.678;2023-04-03T03:44:20;7.82;;;1.90;;
65373;SDS011;52070;53.760;9.678;2023-04-03T03:46:47;6.25;;;1.95;;
65373;SDS011;52070;53.760;9.678;2023-04-03T03:49:15;5.85;;;1.63;;
65373;SDS011;52070;53.760;9.678;2023-04-03T03:51:42;4.97;;;1.70;;
65373;SDS011;52070;53.760;9.678;2023-04-03T03:54:09;4.55;;;1.65;;
65373;SDS011;52070;53.760;9.678;2023-04-03T03:56:36;7.15;;;1.90;;
65373;SDS011;52070;53.760;9.678;2023-04-03T03:59:03;10.65;;;2.00;;
65373;SDS011;52070;53.760;9.678;2023-04-03T04:01:30;7.57;;;2.05;;
65373;SDS011;52070;53.760;9.678;2023-04-03T04:03:57;3.72;;;1.65;;
65373;SDS011;52070;53.760;9.678;2023-04-03T04:06:26;6.75;;;2.40;;
65373;SDS011;52070;53.760;9.678;2023-04-03T04:08:53;6.90;;;1.75;;
65373;SDS011;52070;53.760;9.678;2023-04-03T04:11:19;7.15;;;2.45;;
65373;SDS011;52070;53.760;9.678;2023-04-03T04:13:47;5.22;;;1.88;;
65373;SDS011;52070;53.760;9.678;2023-04-03T04:16:14;9.32;;;1.92;;
65373;SDS011;52070;53.760;9.678;2023-04-03T04:18:43;4.07;;;1.63;;
65373;SDS011;52070;53.760;9.678;2023-04-03T04:21:10;9.98;;;1.90;;
65373;SDS011;52070;53.760;9.678;2023-04-03T04:23:38;7.78;;;2.47;;
65373;SDS011;52070;53.760;9.678;2023-04-03T04:26:05;5.55;;;2.15;;
65373;SDS011;52070;53.760;9.678;2023-04-03T04:28:32;9.13;;;2.17;;
65373;SDS011;52070;53.760;9.678;2023-04-03T04:30:58;4.55;;;1.92;;
65373;SDS011;52070;53.760;9.678;2023-04-03T04:33:25;13.80;;;2.53;;
65373;SDS011;52070;53.760;9.678;2023-04-03T04:35:52;11.00;;;2.10;;
65373;SDS011;52070;53.760;9.678;2023-04-03T04:38:19;6.07;;;1.88;;
65373;SDS011;52070;53.760;9.678;2023-04-03T04:40:48;4.47;;;1.95;;
65373;SDS011;52070;53.760;9.678;2023-04-03T04:43:15;3.35;;;1.88;;
65373;SDS011;52070;53.760;9.678;2023-04-03T04:45:42;4.55;;;1.88;;
65373;SDS011;52070;53.760;9.678;2023-04-03T04:48:10;11.10;;;2.22;;
65373;SDS011;52070;53.760;9.678;2023-04-03T04:50:37;12.68;;;2.33;;
65373;SDS011;52070;53.760;9.678;2023-04-03T04:53:04;14.18;;;2.38;;
65373;SDS011;52070;53.760;9.678;2023-04-03T04:55:31;7.22;;;2.22;;
65373;SDS011;52070;53.760;9.678;2023-04-03T04:57:59;10.35;;;2.10;;
65373;SDS011;52070;53.760;9.678;2023-04-03T05:00:26;6.22;;;2.08;;
65373;SDS011;52070;53.760;9.678;2023-04-03T05:02:53;8.50;;;2.03;;
65373;SDS011;52070;53.760;9.678;2023-04-03T05:05:20;5.75;;;1.73;;
65373;SDS011;52070;53.760;9.678;2023-04-03T05:07:47;2.67;;;1.92;;
65373;SDS011;52070;53.760;9.678;2023-04-03T05:10:14;7.53;;;1.88;;
65373;SDS011;52070;53.760;9.678;2023-04-03T05:12:41;5.57;;;1.80;;
65373;SDS011;52070;53.760;9.678;2023-04-03T05:15:10;6.05;;;2.40;;
65373;SDS011;52070;53.760;9.678;2023-04-03T05:17:37;9.02;;;2.20;;
65373;SDS011;52070;53.760;9.678;2023-04-03T05:20:04;6.38;;;2.28;;
65373;SDS011;52070;53.760;9.678;2023-04-03T05:22:32;7.70;;;2.63;;
65373;SDS011;52070;53.760;9.678;2023-04-03T05:24:59;8.57;;;2.53;;
65373;SDS011;52070;53.760;9.678;2023-04-03T05:27:26;6.20;;;2.22;;
65373;SDS011;52070;53.760;9.678;2023-04-03T05:29:54;7.07;;;2.40;;
65373;SDS011;52070;53.760;9.678;2023-04-03T05:32:23;8.20;;;2.40;;
65373;SDS011;52070;53.760;9.678;2023-04-03T05:34:50;5.75;;;2.15;;
65373;SDS011;52070;53.760;9.678;2023-04-03T05:37:17;5.63;;;2.38;;
65373;SDS011;52070;53.760;9.678;2023-04-03T05:39:44;7.15;;;2.17;;
65373;SDS011;52070;53.760;9.678;2023-04-03T05:42:11;9.82;;;2.30;;
65373;SDS011;52070;53.760;9.678;2023-04-03T05:44:39;8.52;;;2.47;;
65373;SDS011;52070;53.760;9.678;2023-04-03T05:47:06;4.95;;;1.98;;
65373;SDS011;52070;53.760;9.678;2023-04-03T05:49:37;5.63;;;2.17;;
65373;SDS011;52070;53.760;9.678;2023-04-03T05:52:06;10.93;;;2.40;;
65373;SDS011;52070;53.760;9.678;2023-04-03T05:54:33;12.30;;;2.38;;
65373;SDS011;52070;53.760;9.678;2023-04-03T05:57:00;6.75;;;2.30;;
65373;SDS011;52070;53.760;9.678;2023-04-03T05:59:27;4.53;;;2.20;;
65373;SDS011;52070;53.760;9.678;2023-04-03T06:01:54;5.72;;;2.20;;
65373;SDS011;52070;53.760;9.678;2023-04-03T06:04:21;4.72;;;2.30;;
65373;SDS011;52070;53.760;9.678;2023-04-03T06:06:50;5.63;;;2.65;;
65373;SDS011;52070;53.760;9.678;2023-04-03T06:09:19;5.78;;;2.47;;
65373;SDS011;52070;53.760;9.678;2023-04-03T06:11:47;9.63;;;2.92;;
65373;SDS011;52070;53.760;9.678;2023-04-03T06:14:14;9.75;;;2.92;;
65373;SDS011;52070;53.760;9.678;2023-04-03T06:16:41;9.00;;;3.20;;
65373;SDS011;52070;53.760;9.678;2023-04-03T06:19:09;6.85;;;2.58;;
65373;SDS011;52070;53.760;9.678;2023-04-03T06:21:37;11.38;;;3.17;;
65373;SDS011;52070;53.760;9.678;2023-04-03T06:24:06;6.40;;;2.65;;
65373;SDS011;52070;53.760;9.678;2023-04-03T06:26:33;8.80;;;2.85;;
65373;SDS011;52070;53.760;9.678;2023-04-03T06:29:00;7.68;;;2.70;;
65373;SDS011;52070;53.760;9.678;2023-04-03T06:31:27;7.82;;;2.80;;
65373;SDS011;52070;53.760;9.678;2023-04-03T06:33:54;8.45;;;2.45;;
65373;SDS011;52070;53.760;9.678;2023-04-03T06:36:21;8.13;;;2.55;;
65373;SDS011;52070;53.760;9.678;2023-04-03T06:38:48;8.38;;;2.40;;
65373;SDS011;52070;53.760;9.678;2023-04-03T06:41:17;9.85;;;2.40;;
65373;SDS011;52070;53.760;9.678;2023-04-03T06:43:44;7.28;;;2.60;;
65373;SDS011;52070;53.760;9.678;2023-04-03T06:46:13;5.13;;;1.95;;
65373;SDS011;52070;53.760;9.678;2023-04-03T06:48:42;8.80;;;2.17;;
65373;SDS011;52070;53.760;9.678;2023-04-03T06:51:13;8.43;;;2.33;;
65373;SDS011;52070;53.760;9.678;2023-04-03T06:53:44;7.72;;;2.00;;
65373;SDS011;52070;53.760;9.678;2023-04-03T06:56:12;7.20;;;2.25;;
65373;SDS011;52070;53.760;9.678;2023-04-03T06:58:41;6.15;;;2.45;;
65373;SDS011;52070;53.760;9.678;2023-04-03T07:01:08;9.98;;;2.47;;
65373;SDS011;52070;53.760;9.678;2023-04-03T07:03:36;9.35;;;2.03;;
65373;SDS011;52070;53.760;9.678;2023-04-03T07:06:03;8.82;;;2.13;;
65373;SDS011;52070;53.760;9.678;2023-04-03T07:08:32;8.85;;;2.08;;
65373;SDS011;52070;53.760;9.678;2023-04-03T07:11:00;7.05;;;1.90;;
65373;SDS011;52070;53.760;9.678;2023-04-03T07:13:27;6.72;;;1.83;;
65373;SDS011;52070;53.760;9.678;2023-04-03T07:15:55;6.03;;;2.00;;
65373;SDS011;52070;53.760;9.678;2023-04-03T07:18:23;6.13;;;1.88;;
65373;SDS011;52070;53.760;9.678;2023-04-03T07:20:50;4.43;;;1.70;;
65373;SDS011;52070;53.760;9.678;2023-04-03T07:23:17;8.82;;;1.90;;
65373;SDS011;52070;53.760;9.678;2023-04-03T07:25:44;3.92;;;1.50;;
65373;SDS011;52070;53.760;9.678;2023-04-03T07:28:11;7.57;;;1.77;;
65373;SDS011;52070;53.760;9.678;2023-04-03T07:30:42;4.75;;;1.50;;
65373;SDS011;52070;53.760;9.678;2023-04-03T07:33:12;8.02;;;1.77;;
65373;SDS011;52070;53.760;9.678;2023-04-03T07:35:40;6.72;;;1.90;;
65373;SDS011;52070;53.760;9.678;2023-04-03T07:38:07;6.15;;;1.70;;
65373;SDS011;52070;53.760;9.678;2023-04-03T07:40:35;4.80;;;1.70;;
65373;SDS011;52070;53.760;9.678;2023-04-03T07:43:02;7.95;;;2.10;;
65373;SDS011;52070;53.760;9.678;2023-04-03T07:45:29;6.50;;;1.80;;
65373;SDS011;52070;53.760;9.678;2023-04-03T07:47:56;7.90;;;1.48;;
65373;SDS011;52070;53.760;9.678;2023-04-03T07:50:24;3.58;;;1.23;;
65373;SDS011;52070;53.760;9.678;2023-04-03T07:52:52;5.25;;;1.30;;
65373;SDS011;52070;53.760;9.678;2023-04-03T07:55:20;9.95;;;1.50;;
65373;SDS011;52070;53.760;9.678;2023-04-03T07:57:46;5.13;;;1.25;;
65373;SDS011;52070;53.760;9.678;2023-04-03T08:00:14;4.95;;;0.98;;
65373;SDS011;52070;53.760;9.678;2023-04-03T08:02:42;4.00;;;1.15;;
65373;SDS011;52070;53.760;9.678;2023-04-03T08:05:15;5.82;;;1.45;;
65373;SDS011;52070;53.760;9.678;2023-04-03T08:07:44;5.47;;;1.05;;
65373;SDS011;52070;53.760;9.678;2023-04-03T08:10:12;6.45;;;1.48;;
65373;SDS011;52070;53.760;9.678;2023-04-03T08:12:39;4.68;;;1.00;;
65373;SDS011;52070;53.760;9.678;2023-04-03T08:15:07;4.45;;;0.80;;
65373;SDS011;52070;53.760;9.678;2023-04-03T08:17:34;4.22;;;1.00;;
65373;SDS011;52070;53.760;9.678;2023-04-03T08:20:02;3.55;;;1.10;;
65373;SDS011;52070;53.760;9.678;2023-04-03T08:22:30;3.17;;;1.02;;
65373;SDS011;52070;53.760;9.678;2023-04-03T08:24:58;2.80;;;0.90;;
65373;SDS011;52070;53.760;9.678;2023-04-03T08:27:26;3.65;;;1.00;;
65373;SDS011;52070;53.760;9.678;2023-04-03T08:29:54;3.05;;;0.70;;
65373;SDS011;52070;53.760;9.678;2023-04-03T08:32:21;4.55;;;0.98;;
65373;SDS011;52070;53.760;9.678;2023-04-03T08:34:48;3.63;;;0.88;;
65373;SDS011;52070;53.760;9.678;2023-04-03T08:37:15;2.88;;;1.13;;
65373;SDS011;52070;53.760;9.678;2023-04-03T08:39:42;3.22;;;0.90;;
65373;SDS011;52070;53.760;9.678;2023-04-03T08:42:14;3.58;;;0.95;;
65373;SDS011;52070;53.760;9.678;2023-04-03T08:44:46;2.10;;;1.00;;
65373;SDS011;52070;53.760;9.678;2023-04-03T08:49:47;1.25;;;0.50;;
65373;SDS011;52070;53.760;9.678;2023-04-03T08:54:48;2.45;;;0.70;;
65373;SDS011;52070;53.760;9.678;2023-04-03T08:57:19;3.50;;;1.02;;
65373;SDS011;52070;53.760;9.678;2023-04-03T08:59:50;7.20;;;0.95;;
65373;SDS011;52070;53.760;9.678;2023-04-03T09:02:22;4.35;;;0.90;;
65373;SDS011;52070;53.760;9.678;2023-04-03T09:04:52;2.92;;;0.80;;
65373;SDS011;52070;53.760;9.678;2023-04-03T09:07:22;2.53;;;0.70;;
65373;SDS011;52070;53.760;9.678;2023-04-03T09:09:57;3.17;;;0.70;;
65373;SDS011;52070;53.760;9.678;2023-04-03T09:12:33;0.90;;;0.50;;
65373;SDS011;52070;53.760;9.678;2023-04-03T09:15:05;3.50;;;1.05;;
65373;SDS011;52070;53.760;9.678;2023-04-03T09:17:44;2.35;;;0.77;;
65373;SDS011;52070;53.760;9.678;2023-04-03T09:20:21;3.65;;;0.80;;
65373;SDS011;52070;53.760;9.678;2023-04-03T09:22:53;3.55;;;0.90;;
65373;SDS011;52070;53.760;9.678;2023-04-03T09:25:21;4.43;;;0.63;;
65373;SDS011;52070;53.760;9.678;2023-04-03T09:27:51;2.15;;;0.80;;
65373;SDS011;52070;53.760;9.678;2023-04-03T09:30:19;2.72;;;0.63;;
65373;SDS011;52070;53.760;9.678;2023-04-03T09:32:50;5.70;;;0.70;;
65373;SDS011;52070;53.760;9.678;2023-04-03T09:35:19;3.45;;;0.75;;
65373;SDS011;52070;53.760;9.678;2023-04-03T09:40:31;3.22;;;0.70;;
65373;SDS011;52070;53.760;9.678;2023-04-03T09:43:04;3.10;;;0.80;;
65373;SDS011;52070;53.760;9.678;2023-04-03T09:45:47;2.20;;;0.70;;
65373;SDS011;52070;53.760;9.678;2023-04-03T09:48:16;2.55;;;0.90;;
65373;SDS011;52070;53.760;9.678;2023-04-03T09:50:55;2.75;;;0.70;;
65373;SDS011;52070;53.760;9.678;2023-04-03T09:53:26;1.85;;;0.68;;
65373;SDS011;52070;53.760;9.678;2023-04-03T09:55:59;4.30;;;0.93;;
65373;SDS011;52070;53.760;9.678;2023-04-03T09:58:30;3.93;;;1.00;;
65373;SDS011;52070;53.760;9.678;2023-04-03T10:01:00;4.07;;;0.85;;
65373;SDS011;52070;53.760;9.678;2023-04-03T10:03:30;2.80;;;0.85;;
65373;SDS011;52070;53.760;9.678;2023-04-03T10:05:58;3.30;;;0.80;;
65373;SDS011;52070;53.760;9.678;2023-04-03T10:08:27;1.35;;;0.90;;
65373;SDS011;52070;53.760;9.678;2023-04-03T10:11:06;5.88;;;1.38;;
65373;SDS011;52070;53.760;9.678;2023-04-03T10:13:36;4.57;;;1.10;;
65373;SDS011;52070;53.760;9.678;2023-04-03T10:16:17;2.22;;;1.15;;
65373;SDS011;52070;53.760;9.678;2023-04-03T10:18:49;4.15;;;1.08;;
65373;SDS011;52070;53.760;9.678;2023-04-03T10:21:26;2.67;;;1.20;;
65373;SDS011;52070;53.760;9.678;2023-04-03T10:24:01;3.80;;;1.20;;
65373;SDS011;52070;53.760;9.678;2023-04-03T10:26:37;3.30;;;1.30;;
65373;SDS011;52070;53.760;9.678;2023-04-03T10:29:15;3.85;;;1.30;;
65373;SDS011;52070;53.760;9.678;2023-04-03T10:31:51;5.57;;;1.75;;
65373;SDS011;52070;53.760;9.678;2023-04-03T10:34:25;3.42;;;0.95;;
65373;SDS011;52070;53.760;9.678;2023-04-03T10:36:58;3.60;;;1.00;;
65373;SDS011;52070;53.760;9.678;2023-04-03T10:39:30;3.60;;;1.00;;
65373;SDS011;52070;53.760;9.678;2023-04-03T10:42:07;3.53;;;1.20;;
65373;SDS011;52070;53.760;9.678;2023-04-03T10:44:43;2.72;;;0.82;;
65373;SDS011;52070;53.760;9.678;2023-04-03T10:47:29;4.40;;;1.00;;
65373;SDS011;52070;53.760;9.678;2023-04-03T10:50:02;4.03;;;1.27;;
65373;SDS011;52070;53.760;9.678;2023-04-03T10:52:47;2.00;;;0.77;;
65373;SDS011;52070;53.760;9.678;2023-04-03T10:55:23;2.65;;;0.90;;
65373;SDS011;52070;53.760;9.678;2023-04-03T10:57:58;3.15;;;0.98;;
65373;SDS011;52070;53.760;9.678;2023-04-03T11:00:29;5.07;;;0.95;;
65373;SDS011;52070;53.760;9.678;2023-04-03T11:03:03;2.67;;;0.82;;
65373;SDS011;52070;53.760;9.678;2023-04-03T11:05:34;3.03;;;0.85;;
65373;SDS011;52070;53.760;9.678;2023-04-03T11:08:08;3.28;;;0.90;;
65373;SDS011;52070;53.760;9.678;2023-04-03T11:10:42;4.55;;;1.15;;
65373;SDS011;52070;53.760;9.678;2023-04-03T11:13:11;2.15;;;0.70;;
65373;SDS011;52070;53.760;9.678;2023-04-03T11:15:42;3.85;;;1.55;;
65373;SDS011;52070;53.760;9.678;2023-04-03T11:18:13;1.90;;;1.20;;
65373;SDS011;52070;53.760;9.678;2023-04-03T11:20:43;4.32;;;0.98;;
65373;SDS011;52070;53.760;9.678;2023-04-03T11:23:24;2.80;;;1.20;;
65373;SDS011;52070;53.760;9.678;2023-04-03T11:25:53;1.25;;;0.52;;
65373;SDS011;52070;53.760;9.678;2023-04-03T11:28:26;4.75;;;0.95;;
65373;SDS011;52070;53.760;9.678;2023-04-03T11:30:56;4.65;;;0.90;;
65373;SDS011;52070;53.760;9.678;2023-04-03T11:33:32;3.90;;;1.02;;
65373;SDS011;52070;53.760;9.678;2023-04-03T11:36:08;3.72;;;0.80;;
65373;SDS011;52070;53.760;9.678;2023-04-03T11:38:41;6.70;;;0.98;;
65373;SDS011;52070;53.760;9.678;2023-04-03T11:41:11;3.90;;;0.95;;
65373;SDS011;52070;53.760;9.678;2023-04-03T11:43:40;2.40;;;0.98;;
65373;SDS011;52070;53.760;9.678;2023-04-03T11:46:10;7.40;;;1.10;;
65373;SDS011;52070;53.760;9.678;2023-04-03T11:48:45;2.45;;;0.90;;
65373;SDS011;52070;53.760;9.678;2023-04-03T11:51:38;2.40;;;1.10;;
65373;SDS011;52070;53.760;9.678;2023-04-03T12:05:57;2.47;;;1.00;;
65373;SDS011;52070;53.760;9.678;2023-04-03T12:09:05;3.85;;;1.00;;
65373;SDS011;52070;53.760;9.678;2023-04-03T12:11:56;3.90;;;0.95;;
65373;SDS011;52070;53.760;9.678;2023-04-03T12:14:25;3.67;;;1.25;;
65373;SDS011;52070;53.760;9.678;2023-04-03T12:16:54;3.38;;;1.02;;
65373;SDS011;52070;53.760;9.678;2023-04-03T12:19:30;4.25;;;1.00;;
65373;SDS011;52070;53.760;9.678;2023-04-03T12:24:47;3.58;;;1.20;;
65373;SDS011;52070;53.760;9.678;2023-04-03T12:27:27;3.45;;;1.00;;
65373;SDS011;52070;53.760;9.678;2023-04-03T12:30:01;1.65;;;0.85;;
65373;SDS011;52070;53.760;9.678;2023-04-03T12:32:45;1.77;;;0.80;;
65373;SDS011;52070;53.760;9.678;2023-04-03T12:35:20;0.88;;;0.68;;
65373;SDS011;52070;53.760;9.678;2023-04-03T12:41:10;3.92;;;1.42;;
65373;SDS011;52070;53.760;9.678;2023-04-03T12:46:36;3.08;;;1.00;;
65373;SDS011;52070;53.760;9.678;2023-04-03T12:49:12;2.90;;;0.95;;
65373;SDS011;52070;53.760;9.678;2023-04-03T12:51:48;5.25;;;1.90;;
65373;SDS011;52070;53.760;9.678;2023-04-03T12:54:16;3.35;;;0.73;;
65373;SDS011;52070;53.760;9.678;2023-04-03T12:56:48;2.63;;;0.70;;
65373;SDS011;52070;53.760;9.678;2023-04-03T12:59:16;2.95;;;1.08;;
65373;SDS011;52070;53.760;9.678;2023-04-03T13:01:52;2.63;;;0.90;;
65373;SDS011;52070;53.760;9.678;2023-04-03T13:04:20;1.70;;;1.00;;
65373;SDS011;52070;53.760;9.678;2023-04-03T13:07:38;4.18;;;0.80;;
65373;SDS011;52070;53.760;9.678;2023-04-03T13:14:40;2.47;;;1.05;;
65373;SDS011;52070;53.760;9.678;2023-04-03T13:17:38;3.40;;;0.90;;
65373;SDS011;52070;53.760;9.678;2023-04-03T13:20:12;2.67;;;0.90;;
65373;SDS011;52070;53.760;9.678;2023-04-03T13:22:46;3.50;;;1.25;;
65373;SDS011;52070;53.760;9.678;2023-04-03T13:25:16;4.00;;;0.98;;
65373;SDS011;52070;53.760;9.678;2023-04-03T13:27:46;4.00;;;0.93;;
65373;SDS011;52070;53.760;9.678;2023-04-03T13:30:23;4.15;;;1.10;;
65373;SDS011;52070;53.760;9.678;2023-04-03T13:32:52;1.65;;;0.80;;
65373;SDS011;52070;53.760;9.678;2023-04-03T13:35:30;5.60;;;1.02;;
65373;SDS011;52070;53.760;9.678;2023-04-03T13:38:01;4.93;;;1.10;;
65373;SDS011;52070;53.760;9.678;2023-04-03T13:40:31;1.75;;;0.77;;
65373;SDS011;52070;53.760;9.678;2023-04-03T13:42:59;6.70;;;1.10;;
65373;SDS011;52070;53.760;9.678;2023-04-03T13:45:30;4.65;;;1.17;;
65373;SDS011;52070;53.760;9.678;2023-04-03T13:50:50;3.67;;;0.90;;
65373;SDS011;52070;53.760;9.678;2023-04-03T13:53:19;2.78;;;0.95;;
65373;SDS011;52070;53.760;9.678;2023-04-03T13:55:55;5.57;;;1.15;;
65373;SDS011;52070;53.760;9.678;2023-04-03T13:58:31;4.43;;;1.50;;
65373;SDS011;52070;53.760;9.678;2023-04-03T14:01:06;5.25;;;2.25;;
65373;SDS011;52070;53.760;9.678;2023-04-03T14:03:39;7.90;;;2.50;;
65373;SDS011;52070;53.760;9.678;2023-04-03T14:06:10;3.85;;;1.10;;
65373;SDS011;52070;53.760;9.678;2023-04-03T14:08:39;3.28;;;1.27;;
65373;SDS011;52070;53.760;9.678;2023-04-03T14:11:08;4.75;;;1.38;;
65373;SDS011;52070;53.760;9.678;2023-04-03T14:13:40;4.28;;;1.25;;
65373;SDS011;52070;53.760;9.678;2023-04-03T14:16:11;4.07;;;1.08;;
65373;SDS011;52070;53.760;9.678;2023-04-03T14:18:40;5.22;;;1.45;;
65373;SDS011;52070;53.760;9.678;2023-04-03T14:21:07;2.55;;;1.05;;
65373;SDS011;52070;53.760;9.678;2023-04-03T14:23:35;2.78;;;1.08;;
65373;SDS011;52070;53.760;9.678;2023-04-03T14:26:02;3.13;;;0.93;;
65373;SDS011;52070;53.760;9.678;2023-04-03T14:28:31;2.33;;;1.00;;
65373;SDS011;52070;53.760;9.678;2023-04-03T14:30:58;2.58;;;1.27;;
65373;SDS011;52070;53.760;9.678;2023-04-03T14:33:26;3.60;;;1.42;;
65373;SDS011;52070;53.760;9.678;2023-04-03T14:35:56;4.65;;;1.25;;
65373;SDS011;52070;53.760;9.678;2023-04-03T14:38:24;4.00;;;1.58;;
65373;SDS011;52070;53.760;9.678;2023-04-03T14:40:52;2.33;;;1.08;;
65373;SDS011;52070;53.760;9.678;2023-04-03T14:43:20;3.53;;;1.40;;
65373;SDS011;52070;53.760;9.678;2023-04-03T14:45:47;3.72;;;1.55;;
65373;SDS011;52070;53.760;9.678;2023-04-03T14:48:16;3.90;;;1.50;;
65373;SDS011;52070;53.760;9.678;2023-04-03T14:50:47;6.63;;;1.67;;
65373;SDS011;52070;53.760;9.678;2023-04-03T14:53:15;4.07;;;1.45;;
65373;SDS011;52070;53.760;9.678;2023-04-03T14:55:44;5.45;;;1.10;;
65373;SDS011;52070;53.760;9.678;2023-04-03T14:58:13;5.05;;;1.20;;
65373;SDS011;52070;53.760;9.678;2023-04-03T15:00:41;7.47;;;1.33;;
65373;SDS011;52070;53.760;9.678;2023-04-03T15:03:12;5.00;;;1.27;;
65373;SDS011;52070;53.760;9.678;2023-04-03T15:05:42;4.55;;;1.30;;
65373;SDS011;52070;53.760;9.678;2023-04-03T15:08:16;3.05;;;1.20;;
65373;SDS011;52070;53.760;9.678;2023-04-03T15:10:46;2.05;;;1.20;;
65373;SDS011;52070;53.760;9.678;2023-04-03T15:13:13;3.65;;;1.20;;
65373;SDS011;52070;53.760;9.678;2023-04-03T15:15:41;2.33;;;1.00;;
65373;SDS011;52070;53.760;9.678;2023-04-03T15:18:10;2.33;;;0.90;;
65373;SDS011;52070;53.760;9.678;2023-04-03T15:20:41;2.95;;;1.20;;
65373;SDS011;52070;53.760;9.678;2023-04-03T15:23:09;5.68;;;1.23;;
65373;SDS011;52070;53.760;9.678;2023-04-03T15:25:39;6.57;;;1.30;;
65373;SDS011;52070;53.760;9.678;2023-04-03T15:28:06;4.60;;;1.15;;
65373;SDS011;52070;53.760;9.678;2023-04-03T15:30:36;4.82;;;1.20;;
65373;SDS011;52070;53.760;9.678;2023-04-03T15:33:05;3.65;;;1.20;;
65373;SDS011;52070;53.760;9.678;2023-04-03T15:35:32;4.20;;;0.93;;
65373;SDS011;52070;53.760;9.678;2023-04-03T15:38:00;6.82;;;1.30;;
65373;SDS011;52070;53.760;9.678;2023-04-03T15:40:26;1.83;;;1.02;;